sensor_id;sensor_type;location;lat;lon;timestamp;temperature;humidity
39067;DHT22;24821;51.988;6.020;2023-03-04T00:01:30;7.10;99.90
39067;DHT22;24821;51.988;6.020;2023-03-04T00:03:56;7.00;99.90
39067;DHT22;24821;51.988;6.020;2023-03-04T00:06:21;7.00;99.90
39067;DHT22;24821;51.988;6.020;2023-03-04T00:08:47;7.10;99.90
39067;DHT22;24821;51.988;6.020;2023-03-04T00:11:12;7.10;99.90
39067;DHT22;24821;51.988;6.020;2023-03-04T00:13:38;7.10;99.90
39067;DHT22;24821;51.988;6.020;2023-03-04T00:16:04;7.10;99.90
39067;DHT22;24821;51.988;6.020;2023-03-04T00:18:29;7.10;99.90
39067;DHT22;24821;51.988;6.020;2023-03-04T00:20:55;7.00;99.90
39067;DHT22;24821;51.988;6.020;2023-03-04T00:23:20;7.00;99.90
39067;DHT22;24821;51.988;6.020;2023-03-04T00:25:46;7.10;99.90
39067;DHT22;24821;51.988;6.020;2023-03-04T00:28:11;7.10;99.90
39067;DHT22;24821;51.988;6.020;2023-03-04T00:30:37;7.00;99.90
39067;DHT22;24821;51.988;6.020;2023-03-04T00:33:02;7.00;99.90
39067;DHT22;24821;51.988;6.020;2023-03-04T00:35:28;7.00;99.90
39067;DHT22;24821;51.988;6.020;2023-03-04T00:37:54;7.00;99.90
39067;DHT22;24821;51.988;6.020;2023-03-04T00:40:19;7.00;99.90
39067;DHT22;24821;51.988;6.020;2023-03-04T00:42:45;6.90;99.90
39067;DHT22;24821;51.988;6.020;2023-03-04T00:45:10;7.00;99.90
39067;DHT22;24821;51.988;6.020;2023-03-04T00:47:36;6.90;99.90
39067;DHT22;24821;51.988;6.020;2023-03-04T00:50:02;7.00;99.90
39067;DHT22;24821;51.988;6.020;2023-03-04T00:52:28;7.00;99.90
39067;DHT22;24821;51.988;6.020;2023-03-04T00:54:53;7.00;99.90
39067;DHT22;24821;51.988;6.020;2023-03-04T00:57:19;7.00;99.90
39067;DHT22;24821;51.988;6.020;2023-03-04T00:59:44;7.00;99.90
39067;DHT22;24821;51.988;6.020;2023-03-04T01:02:10;7.00;99.90
39067;DHT22;24821;51.988;6.020;2023-03-04T01:04:36;7.00;99.90
39067;DHT22;24821;51.988;6.020;2023-03-04T01:07:02;7.00;99.90
39067;DHT22;24821;51.988;6.020;2023-03-04T01:09:28;7.00;99.90
39067;DHT22;24821;51.988;6.020;2023-03-04T01:11:53;7.00;99.90
39067;DHT22;24821;51.988;6.020;2023-03-04T01:14:19;7.00;99.90
39067;DHT22;24821;51.988;6.020;2023-03-04T01:16:45;7.00;99.90
39067;DHT22;24821;51.988;6.020;2023-03-04T01:19:10;7.00;99.90
39067;DHT22;24821;51.988;6.020;2023-03-04T01:21:36;7.00;99.90
39067;DHT22;24821;51.988;6.020;2023-03-04T01:24:02;7.00;99.90
39067;DHT22;24821;51.988;6.020;2023-03-04T01:26:27;7.00;99.90
39067;DHT22;24821;51.988;6.020;2023-03-04T01:28:53;7.00;99.90
39067;DHT22;24821;51.988;6.020;2023-03-04T01:31:18;7.00;99.90
39067;DHT22;24821;51.988;6.020;2023-03-04T01:33:44;7.00;99.90
39067;DHT22;24821;51.988;6.020;2023-03-04T01:36:10;7.00;99.90
39067;DHT22;24821;51.988;6.020;2023-03-04T01:38:36;7.00;99.90
39067;DHT22;24821;51.988;6.020;2023-03-04T01:41:01;6.90;99.90
39067;DHT22;24821;51.988;6.020;2023-03-04T01:43:28;6.90;99.90
39067;DHT22;24821;51.988;6.020;2023-03-04T01:45:56;6.90;99.90
39067;DHT22;24821;51.988;6.020;2023-03-04T01:48:31;6.90;99.90
39067;DHT22;24821;51.988;6.020;2023-03-04T01:50:58;6.90;99.90
39067;DHT22;24821;51.988;6.020;2023-03-04T01:53:28;6.90;99.90
39067;DHT22;24821;51.988;6.020;2023-03-04T01:55:57;6.90;99.90
39067;DHT22;24821;51.988;6.020;2023-03-04T01:58:28;6.90;99.90
39067;DHT22;24821;51.988;6.020;2023-03-04T02:00:54;6.90;99.90
39067;DHT22;24821;51.988;6.020;2023-03-04T02:03:20;6.90;99.90
39067;DHT22;24821;51.988;6.020;2023-03-04T02:05:51;6.80;99.90
39067;DHT22;24821;51.988;6.020;2023-03-04T02:08:19;6.90;99.90
39067;DHT22;24821;51.988;6.020;2023-03-04T02:10:46;6.90;99.90
39067;DHT22;24821;51.988;6.020;2023-03-04T02:13:13;6.80;99.90
39067;DHT22;24821;51.988;6.020;2023-03-04T02:15:38;6.80;99.90
39067;DHT22;24821;51.988;6.020;2023-03-04T02:18:22;6.80;99.90
39067;DHT22;24821;51.988;6.020;2023-03-04T02:21:07;6.90;99.90
39067;DHT22;24821;51.988;6.020;2023-03-04T02:23:51;6.80;99.90
39067;DHT22;24821;51.988;6.020;2023-03-04T02:26:26;6.80;99.90
39067;DHT22;24821;51.988;6.020;2023-03-04T02:28:54;6.80;99.90
39067;DHT22;24821;51.988;6.020;2023-03-04T02:33:48;6.80;99.90
39067;DHT22;24821;51.988;6.020;2023-03-04T02:36:13;6.80;99.90
39067;DHT22;24821;51.988;6.020;2023-03-04T02:38:39;6.80;99.90
39067;DHT22;24821;51.988;6.020;2023-03-04T02:41:05;6.80;99.90
39067;DHT22;24821;51.988;6.020;2023-03-04T02:43:34;6.80;99.90
39067;DHT22;24821;51.988;6.020;2023-03-04T02:46:00;6.80;99.90
39067;DHT22;24821;51.988;6.020;2023-03-04T02:48:25;6.70;99.90
39067;DHT22;24821;51.988;6.020;2023-03-04T02:50:52;6.70;99.90
39067;DHT22;24821;51.988;6.020;2023-03-04T02:53:19;6.70;99.90
39067;DHT22;24821;51.988;6.020;2023-03-04T02:55:45;6.80;99.90
39067;DHT22;24821;51.988;6.020;2023-03-04T02:58:11;6.80;99.90
39067;DHT22;24821;51.988;6.020;2023-03-04T03:00:37;6.80;99.90
39067;DHT22;24821;51.988;6.020;2023-03-04T03:03:03;6.80;99.90
39067;DHT22;24821;51.988;6.020;2023-03-04T03:05:34;6.80;99.90
39067;DHT22;24821;51.988;6.020;2023-03-04T03:08:00;6.80;99.90
39067;DHT22;24821;51.988;6.020;2023-03-04T03:10:26;6.80;99.90
39067;DHT22;24821;51.988;6.020;2023-03-04T03:12:52;6.80;99.90
39067;DHT22;24821;51.988;6.020;2023-03-04T03:15:17;6.80;99.90
39067;DHT22;24821;51.988;6.020;2023-03-04T03:17:43;6.80;99.90
39067;DHT22;24821;51.988;6.020;2023-03-04T03:20:10;6.80;99.90
39067;DHT22;24821;51.988;6.020;2023-03-04T03:22:36;6.80;99.90
39067;DHT22;24821;51.988;6.020;2023-03-04T03:25:02;6.80;99.90
39067;DHT22;24821;51.988;6.020;2023-03-04T03:27:28;6.80;99.90
39067;DHT22;24821;51.988;6.020;2023-03-04T03:29:54;6.80;99.90
39067;DHT22;24821;51.988;6.020;2023-03-04T03:32:19;6.80;99.90
39067;DHT22;24821;51.988;6.020;2023-03-04T03:34:45;6.80;99.90
39067;DHT22;24821;51.988;6.020;2023-03-04T03:37:10;6.70;99.90
39067;DHT22;24821;51.988;6.020;2023-03-04T03:39:36;6.80;99.90
39067;DHT22;24821;51.988;6.020;2023-03-04T03:42:02;6.80;99.90
39067;DHT22;24821;51.988;6.020;2023-03-04T03:44:27;6.80;99.90
39067;DHT22;24821;51.988;6.020;2023-03-04T03:46:53;6.70;99.90
39067;DHT22;24821;51.988;6.020;2023-03-04T03:49:18;6.80;99.90
39067;DHT22;24821;51.988;6.020;2023-03-04T03:51:44;6.80;99.90
39067;DHT22;24821;51.988;6.020;2023-03-04T03:54:10;6.70;99.90
39067;DHT22;24821;51.988;6.020;2023-03-04T03:56:35;6.80;99.90
39067;DHT22;24821;51.988;6.020;2023-03-04T03:59:01;6.70;99.90
39067;DHT22;24821;51.988;6.020;2023-03-04T04:01:26;6.70;99.90
39067;DHT22;24821;51.988;6.020;2023-03-04T04:03:52;6.70;99.90
39067;DHT22;24821;51.988;6.020;2023-03-04T04:06:18;6.70;99.90
39067;DHT22;24821;51.988;6.020;2023-03-04T04:08:43;6.80;99.90
39067;DHT22;24821;51.988;6.020;2023-03-04T04:11:10;6.80;99.90
39067;DHT22;24821;51.988;6.020;2023-03-04T04:13:36;6.80;99.90
39067;DHT22;24821;51.988;6.020;2023-03-04T04:16:01;6.80;99.90
39067;DHT22;24821;51.988;6.020;2023-03-04T04:18:27;6.80;99.90
39067;DHT22;24821;51.988;6.020;2023-03-04T04:20:53;6.80;99.90
39067;DHT22;24821;51.988;6.020;2023-03-04T04:23:19;6.70;99.90
39067;DHT22;24821;51.988;6.020;2023-03-04T04:25:45;6.80;99.90
39067;DHT22;24821;51.988;6.020;2023-03-04T04:28:11;6.70;99.90
39067;DHT22;24821;51.988;6.020;2023-03-04T04:30:37;6.80;99.90
39067;DHT22;24821;51.988;6.020;2023-03-04T04:33:03;6.80;99.90
39067;DHT22;24821;51.988;6.020;2023-03-04T04:35:30;6.70;99.90
39067;DHT22;24821;51.988;6.020;2023-03-04T04:37:56;6.80;99.90
39067;DHT22;24821;51.988;6.020;2023-03-04T04:40:22;6.80;99.90
39067;DHT22;24821;51.988;6.020;2023-03-04T04:42:48;6.80;99.90
39067;DHT22;24821;51.988;6.020;2023-03-04T04:45:13;6.80;99.90
39067;DHT22;24821;51.988;6.020;2023-03-04T04:47:39;6.80;99.90
39067;DHT22;24821;51.988;6.020;2023-03-04T04:50:05;6.80;99.90
39067;DHT22;24821;51.988;6.020;2023-03-04T04:52:31;6.80;99.90
39067;DHT22;24821;51.988;6.020;2023-03-04T04:54:56;6.80;99.90
39067;DHT22;24821;51.988;6.020;2023-03-04T04:57:22;6.80;99.90
39067;DHT22;24821;51.988;6.020;2023-03-04T04:59:47;6.80;99.90
39067;DHT22;24821;51.988;6.020;2023-03-04T05:02:13;6.80;99.90
39067;DHT22;24821;51.988;6.020;2023-03-04T05:04:39;6.80;99.90
39067;DHT22;24821;51.988;6.020;2023-03-04T05:07:04;6.80;99.90
39067;DHT22;24821;51.988;6.020;2023-03-04T05:09:30;6.80;99.90
39067;DHT22;24821;51.988;6.020;2023-03-04T05:11:55;6.80;99.90
39067;DHT22;24821;51.988;6.020;2023-03-04T05:14:21;6.80;99.90
39067;DHT22;24821;51.988;6.020;2023-03-04T05:16:46;6.80;99.90
39067;DHT22;24821;51.988;6.020;2023-03-04T05:19:12;6.80;99.90
39067;DHT22;24821;51.988;6.020;2023-03-04T05:21:38;6.80;99.90
39067;DHT22;24821;51.988;6.020;2023-03-04T05:24:04;6.80;99.90
39067;DHT22;24821;51.988;6.020;2023-03-04T05:26:29;6.80;99.90
39067;DHT22;24821;51.988;6.020;2023-03-04T05:28:55;6.70;99.90
39067;DHT22;24821;51.988;6.020;2023-03-04T05:31:20;6.80;99.90
39067;DHT22;24821;51.988;6.020;2023-03-04T05:33:46;6.80;99.90
39067;DHT22;24821;51.988;6.020;2023-03-04T05:36:12;6.70;99.90
39067;DHT22;24821;51.988;6.020;2023-03-04T05:38:37;6.70;99.90
39067;DHT22;24821;51.988;6.020;2023-03-04T05:41:04;6.70;99.90
39067;DHT22;24821;51.988;6.020;2023-03-04T05:43:31;6.70;99.90
39067;DHT22;24821;51.988;6.020;2023-03-04T05:45:58;6.70;99.90
39067;DHT22;24821;51.988;6.020;2023-03-04T05:48:24;6.70;99.90
39067;DHT22;24821;51.988;6.020;2023-03-04T05:50:57;6.70;99.90
39067;DHT22;24821;51.988;6.020;2023-03-04T05:53:23;6.70;99.90
39067;DHT22;24821;51.988;6.020;2023-03-04T05:55:49;6.70;99.90
39067;DHT22;24821;51.988;6.020;2023-03-04T05:58:15;6.70;99.90
39067;DHT22;24821;51.988;6.020;2023-03-04T06:00:41;6.70;99.90
39067;DHT22;24821;51.988;6.020;2023-03-04T06:03:16;6.70;99.90
39067;DHT22;24821;51.988;6.020;2023-03-04T06:05:42;6.70;99.90
39067;DHT22;24821;51.988;6.020;2023-03-04T06:08:08;6.70;99.90
39067;DHT22;24821;51.988;6.020;2023-03-04T06:10:33;6.70;99.90
39067;DHT22;24821;51.988;6.020;2023-03-04T06:12:59;6.70;99.90
39067;DHT22;24821;51.988;6.020;2023-03-04T06:15:24;6.70;99.90
39067;DHT22;24821;51.988;6.020;2023-03-04T06:17:50;6.70;99.90
39067;DHT22;24821;51.988;6.020;2023-03-04T06:20:16;6.70;99.90
39067;DHT22;24821;51.988;6.020;2023-03-04T06:22:41;6.70;99.90
39067;DHT22;24821;51.988;6.020;2023-03-04T06:25:08;6.70;99.90
39067;DHT22;24821;51.988;6.020;2023-03-04T06:27:34;6.80;99.90
39067;DHT22;24821;51.988;6.020;2023-03-04T06:29:59;6.80;99.90
39067;DHT22;24821;51.988;6.020;2023-03-04T06:32:26;6.80;99.90
39067;DHT22;24821;51.988;6.020;2023-03-04T06:34:52;6.80;99.90
39067;DHT22;24821;51.988;6.020;2023-03-04T06:37:18;6.80;99.90
39067;DHT22;24821;51.988;6.020;2023-03-04T06:39:44;6.80;99.90
39067;DHT22;24821;51.988;6.020;2023-03-04T06:42:10;6.80;99.90
39067;DHT22;24821;51.988;6.020;2023-03-04T06:44:36;6.80;99.90
39067;DHT22;24821;51.988;6.020;2023-03-04T06:47:01;6.80;99.90
39067;DHT22;24821;51.988;6.020;2023-03-04T06:49:27;6.80;99.90
39067;DHT22;24821;51.988;6.020;2023-03-04T06:51:52;6.80;99.90
39067;DHT22;24821;51.988;6.020;2023-03-04T06:54:18;6.80;99.90
39067;DHT22;24821;51.988;6.020;2023-03-04T06:56:44;6.80;99.90
39067;DHT22;24821;51.988;6.020;2023-03-04T06:59:10;6.80;99.90
39067;DHT22;24821;51.988;6.020;2023-03-04T07:01:35;6.80;99.90
39067;DHT22;24821;51.988;6.020;2023-03-04T07:04:02;6.80;99.90
39067;DHT22;24821;51.988;6.020;2023-03-04T07:06:28;6.80;99.90
39067;DHT22;24821;51.988;6.020;2023-03-04T07:08:54;6.80;99.90
39067;DHT22;24821;51.988;6.020;2023-03-04T07:11:21;6.80;99.90
39067;DHT22;24821;51.988;6.020;2023-03-04T07:13:47;6.90;99.90
39067;DHT22;24821;51.988;6.020;2023-03-04T07:16:16;6.90;99.90
39067;DHT22;24821;51.988;6.020;2023-03-04T07:18:42;6.90;99.90
39067;DHT22;24821;51.988;6.020;2023-03-04T07:21:08;7.00;99.90
39067;DHT22;24821;51.988;6.020;2023-03-04T07:23:35;7.00;99.90
39067;DHT22;24821;51.988;6.020;2023-03-04T07:26:01;7.10;99.90
39067;DHT22;24821;51.988;6.020;2023-03-04T07:28:27;7.10;99.90
39067;DHT22;24821;51.988;6.020;2023-03-04T07:30:52;7.10;99.90
39067;DHT22;24821;51.988;6.020;2023-03-04T07:33:18;7.10;99.90
39067;DHT22;24821;51.988;6.020;2023-03-04T07:35:43;7.20;99.90
39067;DHT22;24821;51.988;6.020;2023-03-04T07:38:09;7.20;99.90
39067;DHT22;24821;51.988;6.020;2023-03-04T07:40:35;7.30;99.90
39067;DHT22;24821;51.988;6.020;2023-03-04T07:43:00;7.30;99.90
39067;DHT22;24821;51.988;6.020;2023-03-04T07:45:26;7.30;99.90
39067;DHT22;24821;51.988;6.020;2023-03-04T07:47:52;7.30;99.90
39067;DHT22;24821;51.988;6.020;2023-03-04T07:50:18;7.40;99.90
39067;DHT22;24821;51.988;6.020;2023-03-04T07:52:46;7.40;99.90
39067;DHT22;24821;51.988;6.020;2023-03-04T07:55:14;7.50;99.90
39067;DHT22;24821;51.988;6.020;2023-03-04T07:57:40;7.50;99.90
39067;DHT22;24821;51.988;6.020;2023-03-04T08:00:07;7.60;99.90
39067;DHT22;24821;51.988;6.020;2023-03-04T08:02:33;7.60;99.90
39067;DHT22;24821;51.988;6.020;2023-03-04T08:04:58;7.60;99.90
39067;DHT22;24821;51.988;6.020;2023-03-04T08:07:24;7.70;99.90
39067;DHT22;24821;51.988;6.020;2023-03-04T08:09:49;7.70;99.90
39067;DHT22;24821;51.988;6.020;2023-03-04T08:12:15;7.80;99.90
39067;DHT22;24821;51.988;6.020;2023-03-04T08:14:40;7.80;99.90
39067;DHT22;24821;51.988;6.020;2023-03-04T08:17:06;7.80;99.90
39067;DHT22;24821;51.988;6.020;2023-03-04T08:19:33;7.80;99.90
39067;DHT22;24821;51.988;6.020;2023-03-04T08:21:58;7.80;99.90
39067;DHT22;24821;51.988;6.020;2023-03-04T08:24:24;7.90;99.90
39067;DHT22;24821;51.988;6.020;2023-03-04T08:26:49;8.00;99.90
39067;DHT22;24821;51.988;6.020;2023-03-04T08:29:18;8.10;99.90
39067;DHT22;24821;51.988;6.020;2023-03-04T08:31:48;8.10;99.90
39067;DHT22;24821;51.988;6.020;2023-03-04T08:34:15;8.20;99.90
39067;DHT22;24821;51.988;6.020;2023-03-04T08:36:41;8.20;99.90
39067;DHT22;24821;51.988;6.020;2023-03-04T08:39:08;8.30;99.90
39067;DHT22;24821;51.988;6.020;2023-03-04T08:41:35;8.30;99.90
39067;DHT22;24821;51.988;6.020;2023-03-04T08:44:01;8.30;99.90
39067;DHT22;24821;51.988;6.020;2023-03-04T08:46:27;8.40;99.90
39067;DHT22;24821;51.988;6.020;2023-03-04T08:48:53;8.40;99.90
39067;DHT22;24821;51.988;6.020;2023-03-04T08:51:19;8.40;99.90
39067;DHT22;24821;51.988;6.020;2023-03-04T08:53:45;8.50;99.90
39067;DHT22;24821;51.988;6.020;2023-03-04T08:56:11;8.50;99.90
39067;DHT22;24821;51.988;6.020;2023-03-04T08:58:37;8.50;99.90
39067;DHT22;24821;51.988;6.020;2023-03-04T09:01:03;8.50;99.90
39067;DHT22;24821;51.988;6.020;2023-03-04T09:03:29;8.50;99.90
39067;DHT22;24821;51.988;6.020;2023-03-04T09:05:55;8.40;99.90
39067;DHT22;24821;51.988;6.020;2023-03-04T09:08:20;8.40;99.90
39067;DHT22;24821;51.988;6.020;2023-03-04T09:10:46;8.30;99.90
39067;DHT22;24821;51.988;6.020;2023-03-04T09:13:13;8.30;99.90
39067;DHT22;24821;51.988;6.020;2023-03-04T09:15:49;8.30;99.90
39067;DHT22;24821;51.988;6.020;2023-03-04T09:18:16;8.30;99.90
39067;DHT22;24821;51.988;6.020;2023-03-04T09:20:43;8.30;99.90
39067;DHT22;24821;51.988;6.020;2023-03-04T09:23:08;8.30;99.90
39067;DHT22;24821;51.988;6.020;2023-03-04T09:25:35;8.30;99.90
39067;DHT22;24821;51.988;6.020;2023-03-04T09:28:01;8.30;99.90
39067;DHT22;24821;51.988;6.020;2023-03-04T09:30:27;8.30;99.90
39067;DHT22;24821;51.988;6.020;2023-03-04T09:32:53;8.30;99.90
39067;DHT22;24821;51.988;6.020;2023-03-04T09:35:18;8.30;99.90
39067;DHT22;24821;51.988;6.020;2023-03-04T09:37:44;8.30;99.90
39067;DHT22;24821;51.988;6.020;2023-03-04T09:40:17;8.30;99.90
39067;DHT22;24821;51.988;6.020;2023-03-04T09:42:53;8.40;99.90
39067;DHT22;24821;51.988;6.020;2023-03-04T09:45:22;8.50;99.90
39067;DHT22;24821;51.988;6.020;2023-03-04T09:47:51;8.50;99.90
39067;DHT22;24821;51.988;6.020;2023-03-04T09:50:19;8.70;99.90
39067;DHT22;24821;51.988;6.020;2023-03-04T09:53:05;8.80;99.90
39067;DHT22;24821;51.988;6.020;2023-03-04T09:55:41;8.90;99.90
39067;DHT22;24821;51.988;6.020;2023-03-04T10:00:54;9.20;99.90
39067;DHT22;24821;51.988;6.020;2023-03-04T10:03:30;9.20;99.90
39067;DHT22;24821;51.988;6.020;2023-03-04T10:06:03;9.20;99.90
39067;DHT22;24821;51.988;6.020;2023-03-04T10:08:44;9.20;99.90
39067;DHT22;24821;51.988;6.020;2023-03-04T10:14:11;9.40;99.90
39067;DHT22;24821;51.988;6.020;2023-03-04T10:16:56;9.60;99.90
39067;DHT22;24821;51.988;6.020;2023-03-04T10:21:59;9.70;99.90
39067;DHT22;24821;51.988;6.020;2023-03-04T10:24:28;9.70;99.90
39067;DHT22;24821;51.988;6.020;2023-03-04T10:27:04;9.80;99.90
39067;DHT22;24821;51.988;6.020;2023-03-04T10:29:31;9.80;99.90
39067;DHT22;24821;51.988;6.020;2023-03-04T10:31:57;9.80;99.90
39067;DHT22;24821;51.988;6.020;2023-03-04T10:34:23;9.70;99.90
39067;DHT22;24821;51.988;6.020;2023-03-04T10:36:59;9.60;99.90
39067;DHT22;24821;51.988;6.020;2023-03-04T10:39:31;9.40;99.90
39067;DHT22;24821;51.988;6.020;2023-03-04T10:42:05;9.30;99.90
39067;DHT22;24821;51.988;6.020;2023-03-04T10:44:34;9.20;99.90
39067;DHT22;24821;51.988;6.020;2023-03-04T10:47:00;9.20;99.90
39067;DHT22;24821;51.988;6.020;2023-03-04T10:49:27;9.10;99.90
39067;DHT22;24821;51.988;6.020;2023-03-04T10:51:54;9.10;99.90
39067;DHT22;24821;51.988;6.020;2023-03-04T10:54:40;9.20;99.90
39067;DHT22;24821;51.988;6.020;2023-03-04T10:57:15;9.40;99.90
39067;DHT22;24821;51.988;6.020;2023-03-04T10:59:54;9.40;99.90
39067;DHT22;24821;51.988;6.020;2023-03-04T11:02:23;9.60;99.90
39067;DHT22;24821;51.988;6.020;2023-03-04T11:04:51;9.80;99.90
39067;DHT22;24821;51.988;6.020;2023-03-04T11:07:19;10.00;99.90
39067;DHT22;24821;51.988;6.020;2023-03-04T11:09:45;10.00;99.90
39067;DHT22;24821;51.988;6.020;2023-03-04T11:12:12;9.90;99.90
39067;DHT22;24821;51.988;6.020;2023-03-04T11:14:47;9.80;99.90
39067;DHT22;24821;51.988;6.020;2023-03-04T11:17:26;9.80;99.90
39067;DHT22;24821;51.988;6.020;2023-03-04T11:20:02;9.70;99.90
39067;DHT22;24821;51.988;6.020;2023-03-04T11:22:30;9.60;99.90
39067;DHT22;24821;51.988;6.020;2023-03-04T11:25:00;9.60;99.90
39067;DHT22;24821;51.988;6.020;2023-03-04T11:27:37;9.60;99.90
39067;DHT22;24821;51.988;6.020;2023-03-04T11:32:50;9.70;99.90
39067;DHT22;24821;51.988;6.020;2023-03-04T11:35:27;9.70;99.90
39067;DHT22;24821;51.988;6.020;2023-03-04T11:38:01;9.80;99.90
39067;DHT22;24821;51.988;6.020;2023-03-04T11:40:37;9.90;99.90
39067;DHT22;24821;51.988;6.020;2023-03-04T11:43:25;9.90;99.90
39067;DHT22;24821;51.988;6.020;2023-03-04T11:46:23;10.00;99.90
39067;DHT22;24821;51.988;6.020;2023-03-04T11:52:05;10.30;99.90
39067;DHT22;24821;51.988;6.020;2023-03-04T12:06:23;10.40;99.90
39067;DHT22;24821;51.988;6.020;2023-03-04T12:09:08;10.40;99.90
39067;DHT22;24821;51.988;6.020;2023-03-04T12:26:02;10.50;99.90
39067;DHT22;24821;51.988;6.020;2023-03-04T12:28:43;10.50;99.90
39067;DHT22;24821;51.988;6.020;2023-03-04T12:34:08;10.50;99.90
39067;DHT22;24821;51.988;6.020;2023-03-04T12:39:50;10.30;99.90
39067;DHT22;24821;51.988;6.020;2023-03-04T12:45:37;9.90;99.90
39067;DHT22;24821;51.988;6.020;2023-03-04T12:48:26;9.70;99.90
39067;DHT22;24821;51.988;6.020;2023-03-04T12:56:05;9.10;99.90
39067;DHT22;24821;51.988;6.020;2023-03-04T12:58:32;9.10;99.90
39067;DHT22;24821;51.988;6.020;2023-03-04T13:06:41;9.10;99.90
39067;DHT22;24821;51.988;6.020;2023-03-04T13:14:28;9.40;99.90
39067;DHT22;24821;51.988;6.020;2023-03-04T13:17:01;9.40;99.90
39067;DHT22;24821;51.988;6.020;2023-03-04T13:24:57;9.70;99.90
39067;DHT22;24821;51.988;6.020;2023-03-04T13:27:43;9.70;99.90
39067;DHT22;24821;51.988;6.020;2023-03-04T13:43:37;9.30;99.90
39067;DHT22;24821;51.988;6.020;2023-03-04T13:56:33;9.40;99.90
39067;DHT22;24821;51.988;6.020;2023-03-04T14:01:35;9.50;99.90
39067;DHT22;24821;51.988;6.020;2023-03-04T14:04:17;9.50;99.90
39067;DHT22;24821;51.988;6.020;2023-03-04T14:06:45;9.50;99.80
39067;DHT22;24821;51.988;6.020;2023-03-04T14:09:31;9.50;99.50
39067;DHT22;24821;51.988;6.020;2023-03-04T14:12:00;9.50;99.60
39067;DHT22;24821;51.988;6.020;2023-03-04T14:14:49;9.40;99.50
39067;DHT22;24821;51.988;6.020;2023-03-04T14:17:24;9.50;98.90
39067;DHT22;24821;51.988;6.020;2023-03-04T14:19:52;9.50;98.80
39067;DHT22;24821;51.988;6.020;2023-03-04T14:22:32;9.50;98.60
39067;DHT22;24821;51.988;6.020;2023-03-04T14:25:01;9.60;98.30
39067;DHT22;24821;51.988;6.020;2023-03-04T14:27:28;9.50;98.40
39067;DHT22;24821;51.988;6.020;2023-03-04T14:29:55;9.50;98.70
39067;DHT22;24821;51.988;6.020;2023-03-04T14:32:24;9.50;98.80
39067;DHT22;24821;51.988;6.020;2023-03-04T14:34:51;9.50;98.80
39067;DHT22;24821;51.988;6.020;2023-03-04T14:37:22;9.50;98.70
39067;DHT22;24821;51.988;6.020;2023-03-04T14:39:51;9.50;98.80
39067;DHT22;24821;51.988;6.020;2023-03-04T14:42:19;9.50;98.70
39067;DHT22;24821;51.988;6.020;2023-03-04T14:44:48;9.50;98.70
39067;DHT22;24821;51.988;6.020;2023-03-04T14:47:36;9.40;98.80
39067;DHT22;24821;51.988;6.020;2023-03-04T14:50:10;9.40;99.00
39067;DHT22;24821;51.988;6.020;2023-03-04T14:52:45;9.40;99.30
39067;DHT22;24821;51.988;6.020;2023-03-04T14:57:40;9.50;99.30
39067;DHT22;24821;51.988;6.020;2023-03-04T15:02:53;9.60;99.60
39067;DHT22;24821;51.988;6.020;2023-03-04T15:05:24;9.70;99.50
39067;DHT22;24821;51.988;6.020;2023-03-04T15:07:53;9.70;98.90
39067;DHT22;24821;51.988;6.020;2023-03-04T15:10:23;9.80;98.70
39067;DHT22;24821;51.988;6.020;2023-03-04T15:12:54;9.80;98.50
39067;DHT22;24821;51.988;6.020;2023-03-04T15:15:41;9.80;98.40
39067;DHT22;24821;51.988;6.020;2023-03-04T15:20:41;9.70;98.30
39067;DHT22;24821;51.988;6.020;2023-03-04T15:23:07;9.60;98.20
39067;DHT22;24821;51.988;6.020;2023-03-04T15:25:34;9.60;98.10
39067;DHT22;24821;51.988;6.020;2023-03-04T15:28:01;9.50;98.10
39067;DHT22;24821;51.988;6.020;2023-03-04T15:30:29;9.50;98.20
39067;DHT22;24821;51.988;6.020;2023-03-04T15:32:56;9.40;98.10
39067;DHT22;24821;51.988;6.020;2023-03-04T15:35:22;9.40;98.30
39067;DHT22;24821;51.988;6.020;2023-03-04T15:37:49;9.40;98.50
39067;DHT22;24821;51.988;6.020;2023-03-04T15:40:30;9.40;98.60
39067;DHT22;24821;51.988;6.020;2023-03-04T15:42:58;9.40;98.90
39067;DHT22;24821;51.988;6.020;2023-03-04T15:45:27;9.40;98.90
39067;DHT22;24821;51.988;6.020;2023-03-04T15:47:53;9.30;99.20
39067;DHT22;24821;51.988;6.020;2023-03-04T15:50:20;9.20;99.30
39067;DHT22;24821;51.988;6.020;2023-03-04T15:52:46;9.20;99.40
39067;DHT22;24821;51.988;6.020;2023-03-04T15:55:20;9.10;99.60
39067;DHT22;24821;51.988;6.020;2023-03-04T15:57:48;9.00;99.60
39067;DHT22;24821;51.988;6.020;2023-03-04T16:00:15;9.00;99.70
39067;DHT22;24821;51.988;6.020;2023-03-04T16:02:41;8.90;99.60
39067;DHT22;24821;51.988;6.020;2023-03-04T16:05:07;8.90;99.70
39067;DHT22;24821;51.988;6.020;2023-03-04T16:07:33;8.90;99.80
39067;DHT22;24821;51.988;6.020;2023-03-04T16:10:04;8.80;99.80
39067;DHT22;24821;51.988;6.020;2023-03-04T16:12:31;8.80;99.90
39067;DHT22;24821;51.988;6.020;2023-03-04T16:14:57;8.80;99.90
39067;DHT22;24821;51.988;6.020;2023-03-04T16:17:23;8.70;99.90
39067;DHT22;24821;51.988;6.020;2023-03-04T16:19:48;8.80;99.90
39067;DHT22;24821;51.988;6.020;2023-03-04T16:22:21;8.80;99.90
39067;DHT22;24821;51.988;6.020;2023-03-04T16:24:51;8.80;99.90
39067;DHT22;24821;51.988;6.020;2023-03-04T16:27:19;8.80;99.90
39067;DHT22;24821;51.988;6.020;2023-03-04T16:29:46;8.70;99.90
39067;DHT22;24821;51.988;6.020;2023-03-04T16:32:12;8.80;99.90
39067;DHT22;24821;51.988;6.020;2023-03-04T16:34:38;8.80;99.90
39067;DHT22;24821;51.988;6.020;2023-03-04T16:37:12;8.80;99.90
39067;DHT22;24821;51.988;6.020;2023-03-04T16:39:39;8.80;99.90
39067;DHT22;24821;51.988;6.020;2023-03-04T16:42:13;8.70;99.80
39067;DHT22;24821;51.988;6.020;2023-03-04T16:44:39;8.70;99.90
39067;DHT22;24821;51.988;6.020;2023-03-04T16:47:04;8.70;99.90
39067;DHT22;24821;51.988;6.020;2023-03-04T16:49:32;8.70;99.90
39067;DHT22;24821;51.988;6.020;2023-03-04T16:51:57;8.60;99.90
39067;DHT22;24821;51.988;6.020;2023-03-04T16:54:28;8.60;99.90
39067;DHT22;24821;51.988;6.020;2023-03-04T16:56:56;8.60;99.90
39067;DHT22;24821;51.988;6.020;2023-03-04T16:59:22;8.50;99.90
39067;DHT22;24821;51.988;6.020;2023-03-04T17:01:47;8.50;99.90
39067;DHT22;24821;51.988;6.020;2023-03-04T17:04:13;8.50;99.90
39067;DHT22;24821;51.988;6.020;2023-03-04T17:06:39;8.50;99.90
39067;DHT22;24821;51.988;6.020;2023-03-04T17:09:05;8.50;99.90
39067;DHT22;24821;51.988;6.020;2023-03-04T17:11:32;8.40;99.90
39067;DHT22;24821;51.988;6.020;2023-03-04T17:13:57;8.40;99.90
39067;DHT22;24821;51.988;6.020;2023-03-04T17:16:23;8.40;99.90
39067;DHT22;24821;51.988;6.020;2023-03-04T17:18:49;8.30;99.90
39067;DHT22;24821;51.988;6.020;2023-03-04T17:21:16;8.30;99.90
39067;DHT22;24821;51.988;6.020;2023-03-04T17:23:43;8.30;99.90
39067;DHT22;24821;51.988;6.020;2023-03-04T17:26:08;8.30;99.90
39067;DHT22;24821;51.988;6.020;2023-03-04T17:28:35;8.30;99.90
39067;DHT22;24821;51.988;6.020;2023-03-04T17:31:06;8.30;99.90
39067;DHT22;24821;51.988;6.020;2023-03-04T17:33:32;8.30;99.90
39067;DHT22;24821;51.988;6.020;2023-03-04T17:35:57;8.30;99.90
39067;DHT22;24821;51.988;6.020;2023-03-04T17:38:23;8.30;99.90